createdAt,value
2023-12-03T00:01:21.695Z,74.65
2023-12-03T00:04:23.991Z,74.32
2023-12-03T00:07:26.411Z,74.42
2023-12-03T00:10:28.481Z,74.21
2023-12-03T00:13:30.837Z,74.31
2023-12-03T00:16:32.767Z,74.42
2023-12-03T00:19:34.810Z,74.23
2023-12-03T00:22:36.953Z,74.13
2023-12-03T00:25:39.189Z,74.28
2023-12-03T00:28:41.177Z,73.83
2023-12-03T00:31:43.251Z,74.31
2023-12-03T00:34:45.246Z,73.85
2023-12-03T00:37:47.218Z,74.08
2023-12-03T00:40:49.216Z,74.18
2023-12-03T00:43:51.344Z,73.97
2023-12-03T00:46:53.436Z,73.83
2023-12-03T00:49:55.408Z,73.91
2023-12-03T00:52:57.652Z,73.66
2023-12-03T00:55:59.694Z,73.83
2023-12-03T00:59:01.778Z,74.05
2023-12-03T01:02:03.830Z,73.89
2023-12-03T01:05:06.095Z,73.93
2023-12-03T01:08:08.113Z,73.90
2023-12-03T01:11:11.217Z,73.82
2023-12-03T01:14:13.220Z,73.48
2023-12-03T01:17:15.330Z,73.55
2023-12-03T01:20:17.932Z,73.50
2023-12-03T01:23:20.123Z,73.48
2023-12-03T01:26:22.147Z,73.31
2023-12-03T01:29:24.184Z,73.39
2023-12-03T01:32:26.156Z,73.30
2023-12-03T01:35:28.196Z,73.43
2023-12-03T01:38:30.603Z,73.17
2023-12-03T01:41:33.738Z,73.31
2023-12-03T01:44:36.476Z,73.13
2023-12-03T01:47:39.464Z,73.04
2023-12-03T01:50:42.394Z,73.16
2023-12-03T01:53:45.055Z,73.11
2023-12-03T01:56:48.989Z,72.88
2023-12-03T01:59:50.896Z,72.70
2023-12-03T02:02:52.929Z,71.96
2023-12-03T02:06:06.180Z,71.44
2023-12-03T02:09:08.696Z,71.63
2023-12-03T02:12:10.718Z,71.29
2023-12-03T02:15:12.803Z,70.97
2023-12-03T02:18:15.523Z,71.15
2023-12-03T02:21:17.529Z,70.93
2023-12-03T02:24:19.504Z,70.94
2023-12-03T02:27:21.528Z,70.81
2023-12-03T02:30:23.864Z,71.09
2023-12-03T02:33:26.039Z,71.05
2023-12-03T02:36:28.231Z,71.13
2023-12-03T02:39:30.146Z,71.23
2023-12-03T02:42:32.839Z,71.09
2023-12-03T02:45:34.858Z,71.06
2023-12-03T02:48:36.951Z,71.03
2023-12-03T02:51:39.030Z,71.01
2023-12-03T02:54:41.022Z,70.88
2023-12-03T02:57:43.175Z,70.98
2023-12-03T03:00:45.147Z,70.99
2023-12-03T03:03:47.280Z,71.05
2023-12-03T03:06:49.749Z,71.03
2023-12-03T03:09:51.772Z,70.80
2023-12-03T03:12:53.945Z,70.87
2023-12-03T03:15:55.920Z,70.96
2023-12-03T03:18:58.067Z,70.69
2023-12-03T03:22:00.216Z,70.73
2023-12-03T03:25:02.191Z,70.77
2023-12-03T03:28:04.347Z,70.65
2023-12-03T03:31:06.592Z,71.08
2023-12-03T03:34:08.928Z,70.87
2023-12-03T03:37:11.078Z,71.14
2023-12-03T03:40:13.430Z,71.08
2023-12-03T03:43:15.744Z,71.17
2023-12-03T03:46:17.776Z,71.25
2023-12-03T03:49:19.815Z,71.19
2023-12-03T03:52:21.951Z,71.36
2023-12-03T03:55:23.873Z,71.42
2023-12-03T03:58:26.408Z,71.61
2023-12-03T04:01:28.341Z,71.43
2023-12-03T04:04:30.398Z,71.51
2023-12-03T04:07:32.530Z,71.43
2023-12-03T04:10:34.618Z,71.38
2023-12-03T04:13:37.528Z,71.28
2023-12-03T04:16:40.422Z,71.42
2023-12-03T04:19:42.447Z,71.60
2023-12-03T04:22:44.389Z,71.59
2023-12-03T04:25:46.390Z,71.76
2023-12-03T04:28:48.375Z,71.94
2023-12-03T04:31:50.542Z,71.86
2023-12-03T04:34:52.551Z,71.75
2023-12-03T04:37:54.568Z,71.93
2023-12-03T04:40:56.497Z,71.53
2023-12-03T04:43:58.430Z,71.45
2023-12-03T04:47:00.294Z,71.51
2023-12-03T04:50:02.284Z,71.60
2023-12-03T04:53:04.152Z,71.67
2023-12-03T04:56:06.749Z,71.52
2023-12-03T04:59:08.776Z,71.52
2023-12-03T05:02:10.794Z,71.68
2023-12-03T05:05:12.838Z,71.36
2023-12-03T05:08:14.779Z,71.35
2023-12-03T05:11:16.730Z,71.19
2023-12-03T05:14:18.666Z,71.41
2023-12-03T05:17:20.622Z,71.56
2023-12-03T05:20:22.619Z,71.63
2023-12-03T05:23:25.780Z,71.47
2023-12-03T05:26:27.734Z,71.46
2023-12-03T05:29:29.624Z,71.23
2023-12-03T05:32:31.772Z,71.32
2023-12-03T05:35:34.322Z,71.14
2023-12-03T05:38:39.157Z,71.34
2023-12-03T05:41:41.330Z,71.33
2023-12-03T05:44:43.401Z,71.34
2023-12-03T05:47:45.499Z,71.19
2023-12-03T05:50:47.473Z,71.58
2023-12-03T05:53:49.390Z,71.22
2023-12-03T05:56:51.384Z,71.36
2023-12-03T05:59:55.067Z,71.37
2023-12-03T06:03:00.421Z,71.41
2023-12-03T06:06:02.493Z,71.54
2023-12-03T06:09:05.973Z,71.49
2023-12-03T06:12:08.263Z,71.58
2023-12-03T06:15:10.701Z,71.45
2023-12-03T06:18:12.648Z,71.66
2023-12-03T06:21:14.661Z,71.65
2023-12-03T06:24:17.296Z,71.65
2023-12-03T06:27:19.288Z,71.57
2023-12-03T06:30:21.337Z,71.53
2023-12-03T06:33:24.158Z,71.47
2023-12-03T06:36:29.406Z,71.87
2023-12-03T06:39:31.553Z,71.88
2023-12-03T06:42:33.744Z,71.86
2023-12-03T06:45:36.060Z,71.57
2023-12-03T06:48:38.155Z,71.43
2023-12-03T06:51:40.158Z,71.30
2023-12-03T06:54:42.119Z,71.30
2023-12-03T06:57:44.178Z,71.43
2023-12-03T07:00:46.246Z,71.47
2023-12-03T07:03:48.340Z,71.28
2023-12-03T07:06:50.416Z,70.82
2023-12-03T07:09:53.927Z,70.86
2023-12-03T07:12:56.071Z,70.63
2023-12-03T07:15:58.689Z,70.69
2023-12-03T07:19:00.884Z,70.91
2023-12-03T07:22:02.889Z,70.84
2023-12-03T07:25:05.171Z,70.89
2023-12-03T07:28:07.311Z,70.71
2023-12-03T07:31:09.709Z,70.77
2023-12-03T07:34:12.039Z,70.95
2023-12-03T07:37:14.088Z,70.83
2023-12-03T07:40:16.120Z,71.19
2023-12-03T07:43:18.154Z,71.24
2023-12-03T07:46:20.233Z,71.02
2023-12-03T07:49:22.323Z,71.08
2023-12-03T07:52:24.255Z,70.84
2023-12-03T07:55:26.334Z,70.90
2023-12-03T07:58:29.046Z,70.71
2023-12-03T08:01:31.205Z,70.76
2023-12-03T08:04:33.393Z,70.69
2023-12-03T08:07:35.506Z,70.44
2023-12-03T08:10:37.629Z,70.62
2023-12-03T08:13:39.631Z,70.37
2023-12-03T08:16:41.545Z,70.49
2023-12-03T08:19:43.651Z,70.38
2023-12-03T08:22:45.804Z,70.58
2023-12-03T08:25:47.789Z,70.38
2023-12-03T08:28:49.781Z,70.83
2023-12-03T08:31:51.841Z,70.93
2023-12-03T08:34:54.553Z,70.79
2023-12-03T08:37:56.560Z,70.66
2023-12-03T08:40:58.640Z,70.67
2023-12-03T08:44:00.583Z,70.57
2023-12-03T08:47:02.691Z,70.44
2023-12-03T08:50:05.874Z,70.61
2023-12-03T08:53:08.635Z,70.70
2023-12-03T08:56:13.934Z,70.42
2023-12-03T08:59:15.856Z,70.44
2023-12-03T09:02:17.781Z,70.49
2023-12-03T09:05:19.810Z,70.30
2023-12-03T09:08:21.785Z,70.31
2023-12-03T09:11:24.579Z,70.07
2023-12-03T09:14:27.310Z,70.10
2023-12-03T09:17:29.346Z,70.28
2023-12-03T09:20:31.421Z,70.22
2023-12-03T09:23:35.128Z,70.13
2023-12-03T09:26:37.067Z,70.21
2023-12-03T09:29:38.992Z,70.25
2023-12-03T09:32:41.672Z,69.98
2023-12-03T09:35:43.732Z,69.85
2023-12-03T09:38:45.633Z,69.81
2023-12-03T09:41:52.646Z,69.69
2023-12-03T09:45:02.721Z,69.46
2023-12-03T09:48:07.162Z,69.40
2023-12-03T09:51:12.378Z,69.38
2023-12-03T09:54:14.380Z,69.13
2023-12-03T09:57:17.115Z,69.12
2023-12-03T10:00:20.513Z,69.28
2023-12-03T10:03:22.482Z,69.29
2023-12-03T10:06:26.295Z,69.11
2023-12-03T10:09:29.266Z,68.80
2023-12-03T10:12:42.245Z,68.76
2023-12-03T10:15:45.474Z,69.01
2023-12-03T10:18:47.486Z,68.94
2023-12-03T10:21:53.357Z,68.78
2023-12-03T10:24:55.535Z,68.99
2023-12-03T10:27:59.667Z,69.23
2023-12-03T10:31:01.978Z,69.20
2023-12-03T10:34:04.483Z,69.55
2023-12-03T10:37:06.584Z,69.96
2023-12-03T10:40:08.757Z,69.97
2023-12-03T10:43:12.841Z,70.66
2023-12-03T10:46:16.555Z,70.95
2023-12-03T10:49:21.698Z,71.39
2023-12-03T10:52:23.989Z,72.25
2023-12-03T10:55:25.864Z,72.77
2023-12-03T10:58:27.875Z,73.11
2023-12-03T11:01:31.798Z,73.45
2023-12-03T11:04:39.304Z,73.77
2023-12-03T11:07:42.724Z,74.54
2023-12-03T11:10:46.009Z,74.53
2023-12-03T11:13:52.198Z,74.83
2023-12-03T11:17:33.769Z,75.09
2023-12-03T11:20:38.623Z,74.97
2023-12-03T11:23:49.720Z,75.50
2023-12-03T11:26:51.732Z,75.48
2023-12-03T11:29:55.621Z,75.71
2023-12-03T11:32:58.532Z,76.20
2023-12-03T11:36:01.778Z,76.25
2023-12-03T11:39:04.957Z,76.56
2023-12-03T11:42:08.188Z,76.75
2023-12-03T11:45:29.656Z,76.81
2023-12-03T11:48:32.923Z,76.96
2023-12-03T11:51:35.726Z,77.01
2023-12-03T11:54:58.115Z,77.32
2023-12-03T11:58:00.113Z,77.18
2023-12-03T12:01:02.183Z,77.39
2023-12-03T12:04:04.583Z,77.61
2023-12-03T12:07:35.962Z,78.00
2023-12-03T12:10:37.981Z,77.97
2023-12-03T12:13:39.921Z,78.11
2023-12-03T12:16:42.007Z,78.22
2023-12-03T12:19:48.504Z,78.33
2023-12-03T12:22:52.057Z,78.44
2023-12-03T12:25:54.697Z,78.61
2023-12-03T12:28:56.658Z,78.98
2023-12-03T12:32:00.603Z,78.78
2023-12-03T12:35:04.044Z,78.99
2023-12-03T12:38:08.207Z,79.13
2023-12-03T12:41:12.094Z,79.11
2023-12-03T12:44:14.149Z,79.01
2023-12-03T12:47:20.033Z,79.07
2023-12-03T12:50:36.265Z,79.14
2023-12-03T12:53:58.214Z,79.17
2023-12-03T12:57:00.125Z,79.15
2023-12-03T13:00:02.192Z,79.49
2023-12-03T13:03:04.371Z,79.64
2023-12-03T13:06:07.065Z,80.09
2023-12-03T13:09:10.119Z,80.09
2023-12-03T13:12:12.177Z,80.03
2023-12-03T13:15:14.217Z,80.34
2023-12-03T13:18:22.626Z,80.43
2023-12-03T13:21:27.719Z,80.55
2023-12-03T13:24:29.973Z,80.67
2023-12-03T13:27:31.909Z,80.72
2023-12-03T13:30:33.939Z,80.87
2023-12-03T13:33:36.482Z,81.06
2023-12-03T13:36:39.100Z,81.05
2023-12-03T13:39:41.409Z,81.18
2023-12-03T13:42:53.344Z,81.33
2023-12-03T13:45:55.350Z,81.37
2023-12-03T13:48:57.597Z,81.57
2023-12-03T13:51:59.797Z,81.70
2023-12-03T13:55:01.982Z,81.25
2023-12-03T13:58:04.488Z,81.39
2023-12-03T14:01:06.702Z,81.45
2023-12-03T14:04:08.716Z,81.34
2023-12-03T14:07:10.753Z,81.43
2023-12-03T14:10:12.924Z,81.33
2023-12-03T14:13:14.848Z,81.33
2023-12-03T14:16:16.825Z,81.13
2023-12-03T14:19:18.793Z,80.93
2023-12-03T14:22:20.736Z,80.94
2023-12-03T14:25:26.959Z,81.00
2023-12-03T14:28:28.931Z,80.71
2023-12-03T14:31:34.610Z,80.68
2023-12-03T14:34:37.230Z,80.58
2023-12-03T14:37:39.210Z,80.62
2023-12-03T14:40:41.460Z,80.64
2023-12-03T14:43:43.392Z,80.57
2023-12-03T14:46:45.344Z,80.64
2023-12-03T14:49:47.401Z,80.78
2023-12-03T14:52:50.075Z,80.78
2023-12-03T14:55:52.512Z,80.74
2023-12-03T14:58:55.914Z,80.95
2023-12-03T15:01:58.990Z,80.91
2023-12-03T15:05:05.313Z,80.75
2023-12-03T15:08:07.827Z,80.77
2023-12-03T15:11:13.050Z,81.04
2023-12-03T15:14:15.044Z,80.68
2023-12-03T15:17:17.062Z,80.65
2023-12-03T15:20:19.708Z,80.45
2023-12-03T15:23:21.653Z,80.54
2023-12-03T15:26:23.696Z,80.50
2023-12-03T15:29:26.303Z,80.64
2023-12-03T15:32:30.625Z,80.55
2023-12-03T15:35:32.661Z,80.68
2023-12-03T15:38:35.385Z,80.59
2023-12-03T15:41:37.363Z,80.42
2023-12-03T15:44:39.773Z,80.58
2023-12-03T15:47:41.829Z,80.36
2023-12-03T15:50:44.042Z,80.40
2023-12-03T15:53:46.014Z,80.43
2023-12-03T15:56:48.060Z,80.23
2023-12-03T15:59:50.132Z,80.18
2023-12-03T16:02:53.530Z,80.22
2023-12-03T16:05:55.669Z,80.18
2023-12-03T16:09:00.610Z,80.15
2023-12-03T16:12:02.707Z,80.12
2023-12-03T16:15:05.273Z,80.16
2023-12-03T16:18:07.411Z,80.23
2023-12-03T16:21:09.680Z,80.09
2023-12-03T16:24:13.178Z,80.18
2023-12-03T16:27:15.221Z,80.13
2023-12-03T16:30:17.943Z,80.13
2023-12-03T16:33:19.970Z,80.14
2023-12-03T16:36:22.052Z,80.53
2023-12-03T16:39:24.636Z,80.26
2023-12-03T16:42:28.183Z,79.92
2023-12-03T16:45:31.330Z,80.21
2023-12-03T16:48:33.613Z,80.13
2023-12-03T16:51:37.340Z,80.21
2023-12-03T16:54:41.528Z,80.11
2023-12-03T16:57:43.516Z,80.41
2023-12-03T17:00:45.534Z,80.31
2023-12-03T17:03:47.594Z,80.29
2023-12-03T17:06:49.598Z,80.47
2023-12-03T17:09:51.580Z,80.32
2023-12-03T17:12:58.562Z,80.23
2023-12-03T17:16:01.011Z,80.39
2023-12-03T17:19:03.248Z,80.48
2023-12-03T17:22:05.268Z,80.61
2023-12-03T17:25:07.592Z,80.45
2023-12-03T17:28:09.703Z,80.68
2023-12-03T17:31:11.728Z,80.51
2023-12-03T17:34:13.948Z,80.47
2023-12-03T17:37:16.822Z,80.50
2023-12-03T17:40:20.912Z,80.24
2023-12-03T17:43:24.264Z,80.47
2023-12-03T17:46:26.673Z,80.36
2023-12-03T17:49:28.903Z,80.44
2023-12-03T17:52:31.089Z,80.22
2023-12-03T17:55:33.006Z,80.33
2023-12-03T17:58:35.593Z,80.30
2023-12-03T18:01:38.788Z,80.46
2023-12-03T18:04:40.931Z,80.27
2023-12-03T18:07:42.942Z,80.31
2023-12-03T18:10:46.568Z,80.24
2023-12-03T18:13:48.808Z,79.80
2023-12-03T18:16:50.739Z,80.21
2023-12-03T18:19:53.265Z,79.78
2023-12-03T18:22:55.884Z,80.06
2023-12-03T18:25:58.392Z,80.17
2023-12-03T18:29:00.903Z,80.28
2023-12-03T18:32:03.009Z,80.04
2023-12-03T18:35:05.400Z,79.94
2023-12-03T18:38:07.434Z,80.07
2023-12-03T18:41:09.358Z,80.36
2023-12-03T18:44:11.594Z,79.96
2023-12-03T18:47:13.561Z,80.08
2023-12-03T18:50:15.522Z,80.24
2023-12-03T18:53:17.434Z,80.15
2023-12-03T18:56:19.458Z,80.26
2023-12-03T18:59:22.364Z,80.30
2023-12-03T19:02:24.613Z,80.24
2023-12-03T19:05:26.937Z,80.33
2023-12-03T19:08:33.393Z,80.48
2023-12-03T19:11:37.874Z,79.96
2023-12-03T19:14:39.875Z,80.19
2023-12-03T19:17:43.442Z,80.56
2023-12-03T19:20:45.432Z,80.29
2023-12-03T19:23:47.388Z,80.78
2023-12-03T19:26:49.366Z,80.48
2023-12-03T19:29:51.620Z,80.50
2023-12-03T19:32:53.568Z,80.29
2023-12-03T19:35:55.663Z,80.26
2023-12-03T19:38:57.612Z,80.30
2023-12-03T19:41:59.589Z,80.15
2023-12-03T19:45:01.513Z,80.19
2023-12-03T19:48:03.616Z,80.02
2023-12-03T19:51:06.125Z,80.04
2023-12-03T19:54:08.044Z,80.14
2023-12-03T19:57:10.200Z,80.28
2023-12-03T20:00:12.891Z,80.04
2023-12-03T20:03:14.902Z,80.03
2023-12-03T20:06:16.877Z,80.30
2023-12-03T20:09:19.000Z,80.07
2023-12-03T20:12:21.007Z,79.80
2023-12-03T20:15:28.302Z,79.86
2023-12-03T20:18:35.249Z,80.09
2023-12-03T20:21:39.220Z,79.72
2023-12-03T20:24:41.147Z,79.65
2023-12-03T20:27:43.110Z,79.70
2023-12-03T20:30:45.252Z,79.88
2023-12-03T20:33:47.862Z,80.11
2023-12-03T20:36:49.935Z,79.86
2023-12-03T20:39:53.286Z,79.81
2023-12-03T20:42:56.528Z,79.77
2023-12-03T20:45:58.648Z,79.62
2023-12-03T20:49:00.752Z,79.62
2023-12-03T20:52:02.941Z,79.50
2023-12-03T20:55:05.339Z,79.34
2023-12-03T20:58:07.487Z,79.57
2023-12-03T21:01:12.302Z,79.44
2023-12-03T21:04:14.254Z,78.99
2023-12-03T21:07:16.342Z,79.20
2023-12-03T21:10:19.562Z,78.94
2023-12-03T21:13:21.677Z,78.94
2023-12-03T21:16:23.537Z,79.06
2023-12-03T21:19:25.546Z,79.03
2023-12-03T21:22:27.538Z,79.07
2023-12-03T21:25:34.180Z,79.24
2023-12-03T21:28:36.197Z,79.30
2023-12-03T21:31:38.661Z,79.12
2023-12-03T21:34:40.693Z,79.17
2023-12-03T21:37:45.165Z,79.29
2023-12-03T21:40:47.151Z,78.94
2023-12-03T21:43:49.120Z,79.05
2023-12-03T21:46:51.123Z,78.96
2023-12-03T21:49:53.234Z,78.90
2023-12-03T21:52:55.658Z,78.85
2023-12-03T21:55:57.604Z,78.72
2023-12-03T21:58:59.579Z,78.94
2023-12-03T22:02:01.495Z,78.97
2023-12-03T22:05:03.746Z,78.95
2023-12-03T22:08:05.710Z,79.38
2023-12-03T22:11:08.011Z,78.90
2023-12-03T22:14:09.994Z,79.24
2023-12-03T22:17:11.932Z,78.85
2023-12-03T22:20:14.243Z,78.96
2023-12-03T22:23:16.241Z,78.86
2023-12-03T22:26:18.192Z,78.76
2023-12-03T22:29:26.390Z,78.85
2023-12-03T22:32:37.011Z,78.65
2023-12-03T22:35:40.202Z,78.81
2023-12-03T22:38:42.905Z,78.60
2023-12-03T22:41:45.195Z,78.62
2023-12-03T22:44:47.239Z,78.82
2023-12-03T22:47:49.214Z,78.48
2023-12-03T22:50:51.284Z,79.05
2023-12-03T22:53:53.184Z,79.14
2023-12-03T22:56:55.204Z,78.96
2023-12-03T22:59:57.138Z,78.73
2023-12-03T23:02:59.637Z,78.92
2023-12-03T23:06:01.675Z,78.98
2023-12-03T23:09:03.873Z,79.05
2023-12-03T23:12:06.017Z,78.81
2023-12-03T23:15:09.333Z,78.94
2023-12-03T23:18:11.609Z,78.86
2023-12-03T23:21:13.537Z,79.00
2023-12-03T23:24:15.477Z,79.25
2023-12-03T23:27:19.955Z,79.20
2023-12-03T23:30:22.390Z,79.25
2023-12-03T23:33:24.459Z,79.19
2023-12-03T23:36:27.121Z,79.20
2023-12-03T23:39:29.516Z,78.99
2023-12-03T23:42:32.585Z,79.30
2023-12-03T23:45:35.510Z,79.08
2023-12-03T23:48:39.356Z,79.16
2023-12-03T23:51:41.418Z,79.14
2023-12-03T23:54:43.349Z,79.18
2023-12-03T23:57:46.130Z,79.27
